Time;durP1;ratioP1;P1;durP2;ratioP2;P2;SDS_P1;SDS_P2;PMS_P1;PMS_P2;Temp;Humidity;BMP_temperature;BMP_pressure;BME280_temperature;BME280_humidity;BME280_pressure;Samples;Min_cycle;Max_cycle;Signal;HPM_P1;HPM_P2
2022/08/19 00:01:56;;;;;;;14.40;12.90;;;;;;;23.87;57.92;98323.50;5113395;28;42992;-71
2022/08/19 00:04:27;;;;;;;15.70;12.37;;;;;;;23.83;57.84;98319.53;5111944;28;42307;-75
2022/08/19 00:06:56;;;;;;;13.30;11.80;;;;;;;23.79;58.03;98326.34;5111760;28;41687;-71
2022/08/19 00:09:25;;;;;;;13.13;11.73;;;;;;;23.75;58.16;98325.03;5111947;28;42145;-72
2022/08/19 00:11:55;;;;;;;15.00;13.43;;;;;;;23.69;58.58;98316.88;5112115;28;42983;-73
2022/08/19 00:14:24;;;;;;;14.20;12.73;;;;;;;23.63;58.87;98313.06;5112868;28;42965;-73
2022/08/19 00:16:54;;;;;;;17.27;15.40;;;;;;;23.54;60.13;98300.69;5113307;28;39973;-72
2022/08/19 00:19:22;;;;;;;15.47;13.77;;;;;;;23.48;59.77;98301.44;5111424;28;41521;-72
2022/08/19 00:21:49;;;;;;;15.53;13.87;;;;;;;23.43;59.80;98295.78;5111693;28;45363;-71
2022/08/19 00:24:18;;;;;;;14.43;12.93;;;;;;;23.39;60.07;98292.59;5111915;27;43198;-75
2022/08/19 00:26:46;;;;;;;15.23;13.63;;;;;;;23.36;60.11;98289.47;5113322;28;40101;-75
2022/08/19 00:29:17;;;;;;;14.10;12.57;;;;;;;23.31;60.09;98291.88;5112891;28;41688;-74
2022/08/19 00:31:45;;;;;;;15.70;14.00;;;;;;;23.26;59.94;98290.59;5110055;28;42904;-72
2022/08/19 00:34:13;;;;;;;14.80;13.30;;;;;;;23.22;60.24;98285.78;5111417;28;41360;-73
2022/08/19 00:36:42;;;;;;;14.27;12.77;;;;;;;23.17;60.35;98283.63;5111504;28;41977;-74
2022/08/19 00:39:11;;;;;;;16.63;13.57;;;;;;;23.12;60.16;98286.03;5111501;28;42034;-71
2022/08/19 00:41:41;;;;;;;15.20;13.47;;;;;;;23.10;60.54;98287.28;5112784;28;42796;-71
2022/08/19 00:44:14;;;;;;;13.93;12.50;;;;;;;23.07;60.17;98291.19;5094255;28;41764;-75
2022/08/19 00:46:46;;;;;;;14.90;12.93;;;;;;;23.02;60.80;98282.81;5109803;28;41420;-73
2022/08/19 00:49:19;;;;;;;14.47;12.50;;;;;;;22.97;60.51;98285.25;5111123;28;40715;-75
2022/08/19 00:51:51;;;;;;;17.87;15.03;;;;;;;22.93;60.92;98283.94;5111812;28;41776;-72
2022/08/19 00:54:19;;;;;;;13.20;11.57;;;;;;;22.89;60.69;98282.63;5112036;28;42943;-72
2022/08/19 00:56:49;;;;;;;13.53;12.13;;;;;;;22.84;60.43;98285.09;5112658;28;40911;-72
2022/08/19 00:59:19;;;;;;;14.00;11.67;;;;;;;22.77;60.78;98284.13;5110856;28;41153;-72
2022/08/19 01:01:47;;;;;;;12.37;11.00;;;;;;;22.74;60.68;98293.44;5103878;28;42507;-74
2022/08/19 01:04:15;;;;;;;13.37;11.97;;;;;;;22.69;60.98;98295.00;5111828;28;42399;-74
2022/08/19 01:06:43;;;;;;;16.97;14.23;;;;;;;22.65;61.34;98291.00;5105495;28;38903;-74
2022/08/19 01:09:11;;;;;;;16.80;12.93;;;;;;;22.58;61.48;98280.97;5112092;28;42625;-73
2022/08/19 01:11:43;;;;;;;15.93;13.17;;;;;;;22.52;61.48;98284.38;5107346;28;42746;-71
2022/08/19 01:14:13;;;;;;;15.00;12.57;;;;;;;22.44;61.25;98284.47;5093254;28;41418;-73
2022/08/19 01:16:42;;;;;;;14.27;12.77;;;;;;;22.44;61.34;98289.03;5109370;28;45004;-75
2022/08/19 01:19:19;;;;;;;13.77;11.70;;;;;;;22.38;62.14;98279.81;5091750;28;40670;-73
2022/08/19 01:21:53;;;;;;;15.00;12.83;;;;;;;22.33;61.46;98274.16;5107543;28;42678;-71
2022/08/19 01:24:22;;;;;;;17.30;12.57;;;;;;;22.29;61.58;98270.13;5111311;28;42278;-71
2022/08/19 01:26:50;;;;;;;13.20;11.80;;;;;;;22.24;61.99;98261.78;5108752;28;39954;-74
2022/08/19 01:29:17;;;;;;;13.67;12.17;;;;;;;22.21;62.19;98264.84;5108664;28;42918;-73
2022/08/19 01:31:45;;;;;;;13.93;12.43;;;;;;;22.18;62.18;98268.72;5110455;28;42814;-73
2022/08/19 01:34:13;;;;;;;16.47;13.30;;;;;;;22.13;63.15;98268.44;5111742;28;42219;-73
2022/08/19 01:36:46;;;;;;;14.37;12.17;;;;;;;22.10;62.51;98285.00;5110658;28;40830;-74
2022/08/19 01:39:20;;;;;;;14.03;11.90;;;;;;;22.10;62.64;98297.66;5113943;28;40950;-72
2022/08/19 01:41:49;;;;;;;11.90;10.67;;;;;;;22.10;62.32;98309.28;5114032;28;42580;-74
2022/08/19 01:44:20;;;;;;;12.10;10.87;;;;;;;22.11;61.83;98310.13;5113674;28;42315;-73
2022/08/19 01:46:49;;;;;;;14.00;11.43;;;;;;;22.13;62.47;98308.06;5111263;28;41083;-74
2022/08/19 01:49:19;;;;;;;14.37;11.77;;;;;;;22.13;62.10;98318.88;5113105;28;42233;-71
2022/08/19 01:51:47;;;;;;;12.20;10.83;;;;;;;22.15;62.06;98327.59;5114814;28;42918;-74
2022/08/19 01:54:16;;;;;;;12.77;11.40;;;;;;;22.15;62.41;98324.88;5113066;28;43431;-72
2022/08/19 01:56:43;;;;;;;14.07;12.27;;;;;;;22.13;62.39;98318.88;5115509;28;40709;-76
2022/08/19 01:59:20;;;;;;;14.10;11.60;;;;;;;22.13;62.81;98318.88;5111359;28;40687;-75
2022/08/19 02:01:47;;;;;;;13.50;12.03;;;;;;;22.11;62.32;98315.50;5110050;28;43155;-72
2022/08/19 02:04:15;;;;;;;14.57;12.10;;;;;;;22.06;62.32;98318.72;5114254;28;42319;-72
2022/08/19 02:06:43;;;;;;;13.43;11.70;;;;;;;22.04;62.33;98325.31;5113770;28;39005;-73
2022/08/19 02:09:11;;;;;;;12.57;10.87;;;;;;;21.97;62.66;98321.66;5108535;28;41597;-73
2022/08/19 02:11:39;;;;;;;13.57;10.47;;;;;;;21.98;62.66;98326.03;5114939;28;42568;-71
2022/08/19 02:14:08;;;;;;;13.50;11.73;;;;;;;21.95;62.63;98332.63;5113969;28;43157;-75
2022/08/19 02:16:40;;;;;;;15.37;12.50;;;;;;;21.88;63.33;98321.69;5113475;28;41064;-74
2022/08/19 02:19:08;;;;;;;13.43;11.97;;;;;;;21.88;63.31;98313.63;5111666;28;41770;-73
2022/08/19 02:21:37;;;;;;;15.97;12.90;;;;;;;21.83;63.54;98317.88;5114064;28;42719;-74
2022/08/19 02:24:05;;;;;;;15.43;12.90;;;;;;;21.80;63.50;98323.63;5111360;28;42305;-75
2022/08/19 02:26:34;;;;;;;13.57;11.43;;;;;;;21.65;63.71;98310.09;5113791;28;39903;-73
2022/08/19 02:29:01;;;;;;;14.23;12.57;;;;;;;21.71;63.35;98325.56;5114019;28;41628;-74
2022/08/19 02:31:29;;;;;;;11.87;10.57;;;;;;;21.67;64.07;98321.53;5112175;28;44264;-72
2022/08/19 02:33:58;;;;;;;13.13;11.07;;;;;;;21.64;63.60;98324.56;5109647;28;42976;-74
2022/08/19 02:36:27;;;;;;;13.17;11.77;;;;;;;21.61;64.01;98329.50;5114929;28;40772;-72
2022/08/19 02:38:54;;;;;;;15.80;12.90;;;;;;;21.58;64.69;98329.84;5096093;28;41431;-75
2022/08/19 02:41:25;;;;;;;13.00;11.17;;;;;;;21.54;64.33;98329.38;5112920;28;43168;-75
2022/08/19 02:43:53;;;;;;;12.50;11.13;;;;;;;21.52;64.38;98320.63;5112267;28;40973;-72
2022/08/19 02:46:23;;;;;;;15.63;12.70;;;;;;;21.50;64.75;98325.38;5114297;27;40172;-75
2022/08/19 02:48:53;;;;;;;13.47;11.23;;;;;;;21.47;64.34;98318.47;5114550;28;41468;-76
2022/08/19 02:51:25;;;;;;;13.03;11.33;;;;;;;21.44;64.29;98321.50;5114440;28;44966;-72
2022/08/19 02:53:52;;;;;;;11.97;10.00;;;;;;;21.42;64.50;98326.22;5113553;28;42919;-72
2022/08/19 02:56:21;;;;;;;12.97;11.23;;;;;;;21.40;64.37;98333.66;5114551;28;41324;-75
2022/08/19 02:58:49;;;;;;;12.90;11.47;;;;;;;21.43;64.93;98338.69;5113123;28;41928;-74
2022/08/19 03:01:22;;;;;;;12.57;11.13;;;;;;;21.30;64.48;98318.72;5096044;28;42098;-76
2022/08/19 03:03:50;;;;;;;13.17;11.13;;;;;;;21.58;64.29;98360.34;5112925;28;41141;-77
2022/08/19 03:06:19;;;;;;;13.33;11.93;;;;;;;21.62;64.28;98367.06;5095957;28;39596;-73
2022/08/19 03:08:49;;;;;;;12.00;10.67;;;;;;;21.71;64.03;98363.28;5113971;28;42762;-75
2022/08/19 03:11:20;;;;;;;12.27;10.70;;;;;;;21.75;63.49;98364.63;5112765;28;44281;-71
2022/08/19 03:13:48;;;;;;;11.50;10.30;;;;;;;21.82;63.43;98353.94;5112780;28;42765;-72
2022/08/19 03:16:16;;;;;;;12.03;10.33;;;;;;;21.81;63.87;98346.88;5112872;28;39271;-75
2022/08/19 03:18:45;;;;;;;12.40;11.10;;;;;;;21.77;64.21;98341.00;5112140;28;41726;-73
2022/08/19 03:21:17;;;;;;;12.20;10.77;;;;;;;21.72;63.99;98339.88;5112399;28;42710;-70
2022/08/19 03:23:45;;;;;;;12.33;10.67;;;;;;;21.66;64.01;98345.97;5095514;28;42506;-71
2022/08/19 03:26:15;;;;;;;14.27;11.27;;;;;;;21.60;64.66;98350.22;5113966;28;40153;-70
2022/08/19 03:28:44;;;;;;;14.00;11.90;;;;;;;21.56;64.23;98348.88;5113455;28;41926;-74
2022/08/19 03:31:14;;;;;;;11.37;10.17;;;;;;;21.51;64.38;98352.09;5095385;28;42722;-72
2022/08/19 03:33:42;;;;;;;15.63;11.23;;;;;;;21.47;64.74;98349.97;5112296;28;42383;-72
2022/08/19 03:36:12;;;;;;;13.27;11.87;;;;;;;21.39;64.80;98337.34;5113673;28;39920;-74
2022/08/19 03:38:43;;;;;;;11.53;10.33;;;;;;;21.38;65.11;98337.56;5113831;28;42583;-73
2022/08/19 03:41:15;;;;;;;14.87;12.30;;;;;;;21.33;65.45;98348.84;5112515;28;42559;-75
2022/08/19 03:43:46;;;;;;;13.57;10.67;;;;;;;21.30;65.16;98332.19;5112125;28;44161;-75
2022/08/19 03:46:16;;;;;;;12.93;10.57;;;;;;;21.26;65.19;98344.34;5109274;28;40764;-73
2022/08/19 03:48:45;;;;;;;13.37;9.67;;;;;;;21.23;65.44;98339.31;5095052;28;40900;-71
2022/08/19 03:51:18;;;;;;;13.10;11.70;;;;;;;21.16;65.89;98326.50;5113242;28;42700;-73
2022/08/19 03:53:47;;;;;;;13.07;11.13;;;;;;;21.16;65.74;98325.66;5112120;28;43103;-73
2022/08/19 03:56:15;;;;;;;13.90;11.43;;;;;;;21.12;66.03;98325.19;5113419;28;40882;-71
2022/08/19 03:58:45;;;;;;;15.03;12.47;;;;;;;21.09;66.23;98325.53;5112047;28;42778;-71
2022/08/19 04:01:17;;;;;;;14.20;11.70;;;;;;;21.07;66.97;98327.56;5111881;28;43289;-74
2022/08/19 04:03:46;;;;;;;17.10;13.60;;;;;;;21.04;67.38;98333.28;5111962;28;40695;-71
2022/08/19 04:06:16;;;;;;;15.40;12.23;;;;;;;21.06;67.40;98336.66;5113077;28;39738;-73
2022/08/19 04:08:46;;;;;;;14.47;11.90;;;;;;;21.12;67.08;98338.66;5094773;28;43808;-71
2022/08/19 04:11:17;;;;;;;14.53;11.53;;;;;;;21.10;67.00;98319.16;5111868;28;42735;-78
2022/08/19 04:13:46;;;;;;;13.77;11.37;;;;;;;21.27;66.93;98327.16;5112068;28;43116;-73
2022/08/19 04:16:14;;;;;;;13.87;11.67;;;;;;;21.34;66.71;98322.75;5113190;28;40651;-71
2022/08/19 04:18:42;;;;;;;14.60;11.67;;;;;;;21.39;66.69;98320.34;5112756;28;41405;-74
2022/08/19 04:21:17;;;;;;;15.10;12.70;;;;;;;21.44;66.49;98317.97;5112816;28;43834;-74
2022/08/19 04:23:46;;;;;;;13.43;11.93;;;;;;;21.46;66.29;98322.19;5110655;28;42193;-73
2022/08/19 04:26:15;;;;;;;14.00;11.03;;;;;;;21.48;66.14;98330.09;5111734;28;39557;-73
2022/08/19 04:28:43;;;;;;;12.03;10.83;;;;;;;21.51;65.96;98330.56;5112652;28;42791;-74
2022/08/19 04:31:16;;;;;;;12.40;10.73;;;;;;;21.54;65.57;98328.53;5112630;28;42776;-71
2022/08/19 04:33:44;;;;;;;13.30;11.30;;;;;;;21.53;65.53;98338.47;5111512;28;42246;-71
2022/08/19 04:36:20;;;;;;;12.50;10.87;;;;;;;21.50;65.53;98344.22;5111250;28;40190;-73
2022/08/19 04:38:48;;;;;;;13.53;11.50;;;;;;;21.49;65.54;98351.47;5111498;28;41796;-71
2022/08/19 04:44:02;;;;;;;12.43;10.93;;;;;;;21.53;65.48;98360.00;5111142;28;42379;-75
2022/08/19 04:46:32;;;;;;;11.20;9.43;;;;;;;21.61;65.29;98370.75;5112943;28;40092;-71
2022/08/19 04:49:01;;;;;;;12.37;9.63;;;;;;;21.69;65.42;98381.50;5112634;28;43660;-73
2022/08/19 04:51:30;;;;;;;11.13;9.97;;;;;;;21.77;64.82;98378.72;5111243;28;43816;-74
2022/08/19 04:53:59;;;;;;;11.67;10.37;;;;;;;21.77;64.99;98365.25;5112169;28;42223;-75
2022/08/19 04:56:27;;;;;;;13.77;10.97;;;;;;;21.91;65.17;98374.44;5111217;28;38896;-72
2022/08/19 04:58:57;;;;;;;10.40;9.27;;;;;;;21.91;64.59;98373.59;5112443;28;41811;-71
2022/08/19 05:01:28;;;;;;;11.33;9.77;;;;;;;22.02;64.37;98381.28;5110976;28;42694;-70
2022/08/19 05:03:57;;;;;;;10.43;9.33;;;;;;;22.11;64.22;98391.03;5111250;28;43190;-74
2022/08/19 05:06:25;;;;;;;10.93;9.70;;;;;;;22.15;64.27;98386.91;5112136;28;40016;-72
2022/08/19 05:08:53;;;;;;;12.10;10.67;;;;;;;22.20;64.11;98387.22;5111994;28;41743;-73
2022/08/19 05:11:23;;;;;;;10.10;9.10;;;;;;;22.27;63.70;98395.44;5110576;27;42489;-74
2022/08/19 05:13:51;;;;;;;13.33;11.07;;;;;;;22.34;63.85;98394.53;5112302;28;42003;-74
2022/08/19 05:16:21;;;;;;;11.47;9.90;;;;;;;22.42;63.65;98382.81;5112352;28;40182;-72
2022/08/19 05:24:24;;;;;;;11.50;9.37;;;;;;;22.68;63.01;98387.81;5110310;28;41326;-73
2022/08/19 05:26:56;;;;;;;12.50;11.20;;;;;;;22.73;62.90;98393.50;5112233;28;40786;-70
2022/08/19 05:29:26;;;;;;;11.40;9.73;;;;;;;22.80;62.78;98402.56;5110623;28;41960;-71
2022/08/19 05:31:55;;;;;;;14.10;11.57;;;;;;;22.86;62.50;98396.44;5110774;28;43787;-72
2022/08/19 05:34:25;;;;;;;11.53;10.33;;;;;;;22.95;62.38;98399.88;5110261;28;41484;-71
2022/08/19 05:36:58;;;;;;;10.87;9.50;;;;;;;23.02;62.16;98400.81;5110325;28;39232;-73
2022/08/19 05:39:34;;;;;;;12.33;9.53;;;;;;;23.09;62.25;98405.31;5110069;28;42768;-72
2022/08/19 05:42:05;;;;;;;10.47;9.40;;;;;;;23.15;61.98;98417.22;5108619;28;42577;-74
2022/08/19 05:44:35;;;;;;;12.47;9.40;;;;;;;23.19;61.81;98413.97;5111556;28;42179;-73
2022/08/19 05:47:05;;;;;;;10.13;9.10;;;;;;;23.24;61.61;98411.50;5111673;28;42013;-73
2022/08/19 05:49:34;;;;;;;12.33;9.43;;;;;;;23.26;61.43;98409.47;5110207;28;41822;-73
2022/08/19 05:52:05;;;;;;;12.47;9.67;;;;;;;23.29;61.59;98419.06;5110275;28;44035;-72
2022/08/19 05:54:33;;;;;;;10.03;8.93;;;;;;;23.31;61.39;98429.69;5110265;28;41703;-71
2022/08/19 05:57:02;;;;;;;11.17;9.97;;;;;;;23.31;61.14;98422.44;5110639;28;39991;-71
2022/08/19 05:59:30;;;;;;;10.10;8.97;;;;;;;23.32;61.04;98431.38;5111663;28;41936;-71
2022/08/19 06:01:59;;;;;;;11.47;10.03;;;;;;;23.34;61.17;98434.72;5111615;28;42569;-71
2022/08/19 06:04:27;;;;;;;11.90;10.10;;;;;;;23.36;61.10;98443.50;5093276;28;42202;-74
2022/08/19 06:06:56;;;;;;;10.30;9.30;;;;;;;23.37;60.92;98447.88;5105756;28;38915;-74
2022/08/19 06:09:25;;;;;;;10.23;9.13;;;;;;;23.40;60.98;98442.06;5110033;28;41150;-73
2022/08/19 06:11:58;;;;;;;10.87;9.77;;;;;;;23.46;60.95;98435.94;5108984;28;41881;-73
2022/08/19 06:14:28;;;;;;;12.07;9.30;;;;;;;23.53;60.76;98442.28;5105677;28;43104;-73
2022/08/19 06:16:57;;;;;;;11.20;10.00;;;;;;;23.59;60.52;98444.25;5108149;28;41839;-74
2022/08/19 06:19:25;;;;;;;11.37;9.43;;;;;;;23.59;60.54;98436.13;5110416;28;42398;-74
2022/08/19 06:21:54;;;;;;;9.47;8.23;;;;;;;23.74;60.27;98447.75;5111766;27;43737;-75
2022/08/19 06:24:27;;;;;;;12.07;10.27;;;;;;;23.82;59.94;98444.94;5114037;28;43204;-74
2022/08/19 06:26:58;;;;;;;9.47;8.53;;;;;;;23.98;59.55;98447.41;5096740;28;38916;-76
2022/08/19 06:29:27;;;;;;;9.97;8.97;;;;;;;24.12;59.21;98450.25;5095850;28;42996;-76
2022/08/19 06:31:57;;;;;;;9.30;8.40;;;;;;;24.23;58.95;98456.03;5112833;28;42724;-77
2022/08/19 06:34:27;;;;;;;9.13;8.27;;;;;;;24.33;58.67;98456.59;5112751;28;41212;-77
2022/08/19 06:36:55;;;;;;;10.40;9.00;;;;;;;24.46;58.32;98463.16;5095943;28;39067;-77
2022/08/19 06:39:27;;;;;;;10.67;9.13;;;;;;;24.57;57.95;98462.63;5095314;28;41121;-77
2022/08/19 06:41:57;;;;;;;10.17;9.07;;;;;;;24.61;57.53;98464.75;5109669;28;42780;-73
2022/08/19 06:44:35;;;;;;;12.53;9.70;;;;;;;24.74;57.24;98474.00;5113853;28;42949;-75
2022/08/19 06:47:05;;;;;;;10.87;9.20;;;;;;;24.84;57.22;98477.25;5110869;28;39744;-73
2022/08/19 06:49:34;;;;;;;11.17;9.27;;;;;;;24.97;56.89;98480.09;5112183;28;41876;-75
2022/08/19 06:52:02;;;;;;;11.37;10.27;;;;;;;24.99;56.93;98491.53;5112536;28;42953;-74
2022/08/19 06:54:31;;;;;;;12.43;8.67;;;;;;;24.97;56.74;98490.94;5113383;28;42950;-73
2022/08/19 06:57:01;;;;;;;9.40;8.43;;;;;;;24.95;56.57;98487.56;5113808;28;39757;-76
2022/08/19 06:59:31;;;;;;;10.47;8.60;;;;;;;24.94;56.79;98485.91;5095100;28;42893;-74
2022/08/19 07:02:01;;;;;;;10.00;8.83;;;;;;;25.02;56.86;98488.44;5112615;28;42703;-79
2022/08/19 07:04:31;;;;;;;10.07;8.53;;;;;;;25.13;56.30;98478.94;5113256;28;42883;-76
2022/08/19 07:07:00;;;;;;;9.73;8.63;;;;;;;25.26;56.05;98471.75;5112638;28;40438;-76
2022/08/19 07:09:28;;;;;;;8.87;7.97;;;;;;;25.47;55.84;98491.69;5112161;28;42684;-77
2022/08/19 07:11:57;;;;;;;9.73;8.83;;;;;;;25.57;55.31;98497.59;5112792;28;42698;-76
2022/08/19 07:14:27;;;;;;;10.57;9.47;;;;;;;25.62;55.31;98498.69;5112790;28;43127;-82
2022/08/19 07:16:57;;;;;;;10.63;9.63;;;;;;;25.70;55.10;98503.13;5110369;28;39452;-75
2022/08/19 07:19:27;;;;;;;9.57;8.57;;;;;;;25.75;54.89;98493.31;5111632;28;41387;-73
2022/08/19 07:21:56;;;;;;;9.60;8.60;;;;;;;25.83;54.78;98491.50;5111945;28;42698;-74
2022/08/19 07:24:26;;;;;;;10.10;9.10;;;;;;;25.95;54.55;98490.72;5094194;28;41511;-75
2022/08/19 07:27:01;;;;;;;10.17;9.23;;;;;;;26.17;54.15;98498.72;5110455;28;39921;-76
2022/08/19 07:29:30;;;;;;;8.80;7.90;;;;;;;26.24;53.57;98484.13;5111950;28;42819;-74
2022/08/19 07:31:58;;;;;;;10.27;9.17;;;;;;;26.46;53.14;98514.69;5111945;28;42607;-74
2022/08/19 07:34:27;;;;;;;9.30;8.40;;;;;;;26.52;53.33;98519.31;5094354;28;42077;-77
2022/08/19 07:36:56;;;;;;;9.37;8.50;;;;;;;26.56;52.75;98520.59;5094664;28;39077;-76
2022/08/19 07:39:28;;;;;;;8.77;7.97;;;;;;;26.60;53.01;98516.38;5112265;28;41903;-88
2022/08/19 07:42:00;;;;;;;10.83;9.73;;;;;;;26.58;53.06;98513.03;5109521;28;43889;-80
2022/08/19 07:44:28;;;;;;;9.27;8.20;;;;;;;26.55;52.75;98518.91;5111379;28;41860;-75
2022/08/19 07:46:59;;;;;;;8.80;8.00;;;;;;;26.57;52.75;98510.56;5113067;28;40009;-84
2022/08/19 07:49:28;;;;;;;10.03;8.33;;;;;;;26.47;52.51;98489.19;5111305;28;40868;-74
2022/08/19 07:51:58;;;;;;;8.97;8.07;;;;;;;26.69;52.57;98517.88;5094227;28;42930;-79
2022/08/19 07:54:28;;;;;;;9.67;8.60;;;;;;;26.71;52.53;98515.78;5111899;28;41976;-76
2022/08/19 07:56:58;;;;;;;10.33;8.70;;;;;;;26.72;52.55;98512.03;5112138;28;39077;-89
2022/08/19 07:59:28;;;;;;;9.10;8.17;;;;;;;26.61;52.39;98509.91;5111088;28;41708;-80
2022/08/19 08:01:59;;;;;;;10.40;9.30;;;;;;;26.61;52.36;98526.22;5111145;28;42689;-76
2022/08/19 08:09:58;;;;;;;8.93;8.17;;;;;;;26.76;52.42;98516.00;5110772;28;41912;-77
2022/08/19 08:12:30;;;;;;;9.60;8.77;;;;;;;26.86;51.94;98509.31;5111352;28;42706;-80
2022/08/19 08:15:01;;;;;;;10.30;9.30;;;;;;;27.02;51.66;98526.09;5105313;28;41648;-84
2022/08/19 08:17:30;;;;;;;8.70;7.90;;;;;;;27.24;51.20;98517.72;5108712;28;40877;-81
2022/08/19 08:19:58;;;;;;;8.73;7.83;;;;;;;27.58;50.65;98516.63;5111493;28;42675;-82
2022/08/19 08:25:14;;;;;;;8.10;7.37;;;;;;;28.57;48.34;98538.88;5088961;28;42798;-76
2022/08/19 08:27:45;;;;;;;9.10;8.30;;;;;;;28.75;48.11;98541.72;5110586;28;40007;-78
2022/08/19 08:30:17;;;;;;;9.53;8.73;;;;;;;28.84;47.46;98548.59;5108051;28;41765;-74
2022/08/19 08:32:45;;;;;;;9.63;7.77;;;;;;;28.81;47.64;98551.75;5108884;28;42556;-82
2022/08/19 08:35:17;;;;;;;8.60;7.80;;;;;;;28.70;47.58;98560.59;5112191;28;43300;-84
2022/08/19 08:37:45;;;;;;;9.03;8.17;;;;;;;28.45;47.20;98559.69;5076715;28;39718;-78
2022/08/19 08:40:19;;;;;;;9.63;8.63;;;;;;;28.26;47.63;98555.19;5093966;28;40558;-76
2022/08/19 08:42:55;;;;;;;8.20;7.40;;;;;;;28.15;48.28;98554.78;5107500;28;42590;-76
2022/08/19 08:45:25;;;;;;;8.27;7.47;;;;;;;27.99;48.27;98538.09;5110007;27;41295;-75
2022/08/19 08:47:58;;;;;;;8.13;7.33;;;;;;;27.98;48.77;98537.25;5107423;28;39996;-82
2022/08/19 08:50:30;;;;;;;9.07;7.50;;;;;;;28.04;48.81;98547.28;5110178;28;41069;-75
2022/08/19 08:52:59;;;;;;;7.93;7.23;;;;;;;28.16;48.48;98548.28;5106707;28;42459;-74
2022/08/19 08:55:29;;;;;;;8.23;7.50;;;;;;;28.21;48.03;98545.78;5111413;28;42093;-74
2022/08/19 08:58:01;;;;;;;8.77;7.80;;;;;;;28.30;47.91;98559.16;5092451;28;38863;-75
2022/08/19 09:00:40;;;;;;;8.63;7.83;;;;;;;28.22;47.68;98561.06;5110021;28;42035;-74
2022/08/19 09:03:17;;;;;;;8.60;7.80;;;;;;;28.32;47.54;98565.22;5109098;28;41997;-74
2022/08/19 09:05:56;;;;;;;7.63;6.93;;;;;;;28.50;47.45;98563.44;5092324;28;42226;-76
2022/08/19 09:08:33;;;;;;;8.30;7.60;;;;;;;28.69;47.04;98561.66;5109222;28;39867;-75
2022/08/19 09:11:07;;;;;;;7.97;7.17;;;;;;;28.70;46.40;98566.06;5108100;28;41673;-75
2022/08/19 09:13:44;;;;;;;8.47;7.60;;;;;;;28.68;46.56;98564.63;5092034;28;41708;-77
2022/08/19 09:16:15;;;;;;;8.23;7.43;;;;;;;28.60;46.73;98560.25;5108320;28;42146;-75
2022/08/19 09:18:46;;;;;;;8.13;7.43;;;;;;;28.56;46.63;98569.94;5107935;28;39887;-77
2022/08/19 09:21:15;;;;;;;8.10;7.30;;;;;;;28.54;46.90;98558.41;5107462;28;41818;-79
2022/08/19 09:23:43;;;;;;;8.27;7.57;;;;;;;28.59;46.88;98561.31;5092703;28;42943;-77
2022/08/19 09:26:14;;;;;;;8.07;7.30;;;;;;;28.70;46.69;98559.78;5109610;28;42216;-77
2022/08/19 09:28:45;;;;;;;8.87;8.07;;;;;;;28.69;46.52;98555.38;5109215;28;39578;-78
2022/08/19 09:31:15;;;;;;;8.60;7.70;;;;;;;28.70;46.35;98555.16;5109421;28;41758;-75
2022/08/19 09:33:43;;;;;;;8.47;7.77;;;;;;;28.69;46.50;98548.03;5109281;28;41292;-74
2022/08/19 09:36:13;;;;;;;7.53;6.93;;;;;;;28.78;46.45;98541.31;5109700;28;42310;-77
2022/08/19 09:38:42;;;;;;;9.00;8.10;;;;;;;29.05;46.05;98538.41;5110169;28;40676;-75
2022/08/19 09:41:13;;;;;;;8.40;7.67;;;;;;;29.31;45.61;98546.34;5109198;28;42599;-75
2022/08/19 09:43:45;;;;;;;8.53;7.83;;;;;;;29.38;44.79;98533.50;5092238;28;41687;-75
2022/08/19 09:46:13;;;;;;;8.63;7.80;;;;;;;29.58;45.12;98541.50;5110547;28;42355;-79
2022/08/19 09:48:41;;;;;;;8.93;8.03;;;;;;;29.67;44.65;98542.06;5110623;28;39753;-76
2022/08/19 09:51:14;;;;;;;7.97;7.30;;;;;;;29.65;44.64;98540.38;5110348;28;41922;-80
2022/08/19 09:53:43;;;;;;;9.03;7.83;;;;;;;29.64;44.85;98533.25;5092996;28;42859;-81
2022/08/19 09:56:12;;;;;;;8.63;7.93;;;;;;;29.72;44.52;98539.47;5112414;27;43149;-77
2022/08/19 09:58:40;;;;;;;8.17;7.43;;;;;;;29.81;44.49;98543.56;5114411;28;40926;-77
2022/08/19 10:01:10;;;;;;;8.50;7.80;;;;;;;29.85;43.96;98542.06;5115133;28;43160;-78
2022/08/19 10:03:38;;;;;;;8.00;7.37;;;;;;;29.78;44.26;98544.03;5109414;28;45311;-79
2022/08/19 10:06:06;;;;;;;7.27;6.57;;;;;;;29.69;44.36;98543.47;5114869;28;43182;-79
2022/08/19 10:08:39;;;;;;;6.77;6.13;;;;;;;29.67;44.61;98545.63;5112358;28;40915;-74
2022/08/19 10:11:08;;;;;;;7.00;6.40;;;;;;;29.64;44.32;98546.91;5111154;28;42673;-77
2022/08/19 10:13:36;;;;;;;6.50;5.90;;;;;;;29.52;44.25;98545.97;5113174;28;43521;-76
2022/08/19 10:16:07;;;;;;;6.67;5.80;;;;;;;29.48;44.54;98561.13;5112880;28;42243;-74
2022/08/19 10:18:39;;;;;;;5.90;5.23;;;;;;;29.54;44.27;98564.84;5094896;28;38806;-76
2022/08/19 10:21:10;;;;;;;8.13;5.00;;;;;;;29.58;43.91;98564.16;5109475;28;41980;-76
2022/08/19 10:23:38;;;;;;;5.87;5.37;;;;;;;29.64;43.45;98567.91;5110220;28;42811;-76
2022/08/19 10:26:07;;;;;;;4.73;4.33;;;;;;;29.75;43.08;98560.88;5112555;28;41108;-75
2022/08/19 10:28:37;;;;;;;4.80;4.40;;;;;;;29.96;42.86;98568.63;5111716;28;39697;-75
2022/08/19 10:31:06;;;;;;;5.07;4.67;;;;;;;30.16;42.27;98574.72;5112239;28;40600;-76
2022/08/19 10:33:37;;;;;;;6.30;5.43;;;;;;;30.34;41.42;98566.50;5111258;28;43442;-75
2022/08/19 10:36:06;;;;;;;5.43;4.93;;;;;;;30.51;41.17;98571.34;5110863;28;43227;-78
2022/08/19 10:38:34;;;;;;;5.30;4.80;;;;;;;30.73;40.61;98574.41;5112722;28;41048;-82
2022/08/19 10:41:10;;;;;;;5.17;4.67;;;;;;;30.93;40.26;98581.25;5096045;28;42167;-80
2022/08/19 10:43:39;;;;;;;5.03;4.53;;;;;;;31.02;39.63;98579.03;5113588;28;42912;-80
2022/08/19 10:46:08;;;;;;;4.63;4.00;;;;;;;31.02;39.69;98579.88;5112535;28;43401;-75
2022/08/19 10:48:37;;;;;;;4.57;3.80;;;;;;;31.11;39.37;98587.78;5111557;28;40445;-75
2022/08/19 10:53:51;;;;;;;7.27;3.90;;;;;;;31.40;38.76;98581.41;5102450;28;42792;-74
2022/08/19 10:59:04;;;;;;;4.93;4.53;;;;;;;31.64;38.56;98588.59;5112191;28;39126;-75
2022/08/19 11:01:32;;;;;;;5.30;4.20;;;;;;;31.82;37.94;98595.00;5112328;28;41552;-84
2022/08/19 11:04:02;;;;;;;4.13;3.83;;;;;;;32.06;37.50;98582.94;5113558;28;42737;-78
2022/08/19 11:06:30;;;;;;;4.00;3.60;;;;;;;32.52;36.85;98589.44;5113836;28;43144;-78
2022/08/19 11:08:59;;;;;;;4.00;3.60;;;;;;;32.99;35.73;98576.38;5112429;27;40008;-75
2022/08/19 11:11:28;;;;;;;3.93;3.63;;;;;;;33.21;35.22;98584.72;5112955;28;42521;-75
2022/08/19 11:13:56;;;;;;;4.03;3.63;;;;;;;33.03;35.07;98578.38;5112469;28;43624;-74
2022/08/19 11:16:26;;;;;;;4.00;3.60;;;;;;;32.94;35.43;98573.53;5113494;28;42146;-72
2022/08/19 11:18:58;;;;;;;3.23;3.00;;;;;;;32.74;35.42;98577.56;5110727;28;41078;-74
2022/08/19 11:21:32;;;;;;;3.50;3.20;;;;;;;32.56;35.31;98582.38;5109001;28;42451;-73
2022/08/19 11:24:02;;;;;;;3.00;2.70;;;;;;;32.31;35.49;98583.53;5112067;28;42797;-76
2022/08/19 11:26:30;;;;;;;3.10;2.90;;;;;;;32.12;35.83;98590.22;5112000;28;42829;-76
2022/08/19 11:28:58;;;;;;;3.30;3.00;;;;;;;31.94;36.02;98588.44;5093890;28;38676;-75
2022/08/19 11:31:28;;;;;;;2.97;2.77;;;;;;;31.82;36.39;98589.53;5113383;28;41648;-75
2022/08/19 11:33:59;;;;;;;2.63;2.43;;;;;;;31.63;36.70;98566.91;5094132;28;44349;-76
2022/08/19 11:36:29;;;;;;;3.43;3.13;;;;;;;31.64;36.44;98579.56;5111636;28;43930;-76
2022/08/19 11:38:57;;;;;;;3.30;3.10;;;;;;;31.57;36.27;98579.63;5111261;28;40371;-79
2022/08/19 11:41:25;;;;;;;3.87;3.47;;;;;;;31.58;36.61;98573.06;5112383;28;41945;-80
2022/08/19 11:43:54;;;;;;;3.23;2.93;;;;;;;31.64;36.34;98577.66;5111364;28;42863;-78
2022/08/19 11:46:24;;;;;;;3.60;3.30;;;;;;;31.67;36.24;98582.63;5113524;28;42738;-77
2022/08/19 11:48:52;;;;;;;3.23;2.93;;;;;;;31.74;36.14;98580.63;5094504;28;39329;-76
2022/08/19 11:51:22;;;;;;;3.50;3.10;;;;;;;31.85;36.05;98570.72;5111601;28;41743;-79
2022/08/19 11:53:52;;;;;;;3.20;2.87;;;;;;;32.05;35.51;98573.91;5102397;28;44243;-74
2022/08/19 11:56:20;;;;;;;3.47;3.10;;;;;;;32.25;35.29;98568.06;5094121;28;43049;-74
2022/08/19 11:58:48;;;;;;;2.80;2.60;;;;;;;32.53;34.75;98563.66;5110467;28;39973;-78